Terminal Aerodrome Forecast
Issued by NWS

Home | Current Version | Previous Version | Text Only | Print | Product List | Glossary On
Versions: 1 2 3 4 5 6 7 8 9 10 11 12 13
000
FTUS45 KTFX 281747
TAFLWT
TAF
KLWT 281747Z 2818/2918 25006KT 5SM FU SCT035 BKN070
      TEMPO 2818/2822 3SM FU BKN035
     FM290200 19006KT 6SM FU SCT040 BKN070=

USA.gov is the U.S. government's official web portal to all federal, state and local government web resources and services.